GLO9980 SBGL-SKRG
Flight info
| Callsign | GLO9980 |
|---|---|
| Flight time | 6h 3m |
| Altitude | 36000 |
| Route | ENSOD UM409 MOLTI UZ40 EROPO DCT UMLOV DCT SIGAX/N0456F380 DCT OBGAT DCT SIPAK DCT AMVOL DCT ASAPA UL655 PABON/N0455F390 UP530 LOKOS/N0454F400 UP530 RNG DCT |
| Aircraft | B38M/M-DFGHIJ4J7KLORWXY/LB1 |
Departure
| Time | 2026-05-06 20:20 |
|---|---|
| Airport | Rio Galeão – Tom Jobim International Airport (SBGL) |
Arrival
| Time | 2026-05-07 02:23 |
|---|---|
| Airport | Jose Maria Córdova International Airport (SKRG) |
| Time | Latitude | Longitude | Altitude | Speed | Heading |
|---|---|---|---|---|---|
| 2026-05-06 20:02 | -22.81832 | -43.24451 | 26 ft | 0 kts | 125° |
| 2026-05-06 20:08 | -22.81830 | -43.24453 | 51 ft | 3 kts | 125° |
| 2026-05-06 20:09 | -22.81816 | -43.24477 | 27 ft | 4 kts | 122° |
| 2026-05-06 20:09 | -22.81800 | -43.24500 | 26 ft | 3 kts | 140° |
| 2026-05-06 20:09 | -22.81779 | -43.24514 | 24 ft | 4 kts | 168° |
| 2026-05-06 20:09 | -22.81756 | -43.24510 | 24 ft | 4 kts | 213° |
| 2026-05-06 20:10 | -22.81736 | -43.24492 | 27 ft | 2 kts | 220° |
| 2026-05-06 20:10 | -22.81734 | -43.24491 | 27 ft | 2 kts | 219° |
| 2026-05-06 20:12 | -22.81735 | -43.24491 | 27 ft | 0 kts | 219° |
| 2026-05-06 20:12 | -22.81742 | -43.24498 | 26 ft | 3 kts | 219° |
| 2026-05-06 20:12 | -22.81761 | -43.24521 | 25 ft | 5 kts | 244° |
| 2026-05-06 20:12 | -22.81756 | -43.24566 | 26 ft | 7 kts | 293° |
| 2026-05-06 20:13 | -22.81723 | -43.24622 | 25 ft | 10 kts | 306° |
| 2026-05-06 20:13 | -22.81675 | -43.24695 | 27 ft | 13 kts | 306° |
| 2026-05-06 20:13 | -22.81616 | -43.24787 | 26 ft | 16 kts | 306° |
| 2026-05-06 20:13 | -22.81554 | -43.24875 | 28 ft | 13 kts | 315° |
| 2026-05-06 20:14 | -22.81503 | -43.24946 | 24 ft | 11 kts | 314° |
| 2026-05-06 20:14 | -22.81459 | -43.24999 | 25 ft | 9 kts | 304° |
| 2026-05-06 20:14 | -22.81422 | -43.25065 | 25 ft | 12 kts | 301° |
| 2026-05-06 20:14 | -22.81362 | -43.25140 | 24 ft | 15 kts | 316° |
| 2026-05-06 20:15 | -22.81288 | -43.25248 | 26 ft | 20 kts | 307° |
| 2026-05-06 20:15 | -22.81198 | -43.25342 | 24 ft | 17 kts | 328° |
| 2026-05-06 20:15 | -22.81086 | -43.25383 | 27 ft | 15 kts | 354° |
| 2026-05-06 20:15 | -22.81002 | -43.25382 | 24 ft | 11 kts | 5° |
| 2026-05-06 20:16 | -22.80946 | -43.25428 | 26 ft | 10 kts | 295° |
| 2026-05-06 20:16 | -22.80922 | -43.25484 | 30 ft | 7 kts | 295° |
| 2026-05-06 20:16 | -22.80887 | -43.25564 | 30 ft | 17 kts | 294° |
| 2026-05-06 20:16 | -22.80804 | -43.25682 | 29 ft | 19 kts | 342° |
| 2026-05-06 20:17 | -22.80702 | -43.25634 | 31 ft | 17 kts | 35° |
| 2026-05-06 20:17 | -22.80607 | -43.25562 | 32 ft | 17 kts | 36° |
| 2026-05-06 20:17 | -22.80525 | -43.25542 | 33 ft | 12 kts | 328° |
| 2026-05-06 20:17 | -22.80466 | -43.25577 | 33 ft | 9 kts | 326° |
| 2026-05-06 20:18 | -22.80406 | -43.25612 | 31 ft | 10 kts | 348° |
| 2026-05-06 20:18 | -22.80332 | -43.25582 | 29 ft | 13 kts | 38° |
| 2026-05-06 20:18 | -22.80253 | -43.25516 | 27 ft | 15 kts | 35° |
| 2026-05-06 20:18 | -22.80175 | -43.25465 | 27 ft | 12 kts | 61° |
| 2026-05-06 20:19 | -22.80125 | -43.25267 | 27 ft | 58 kts | 74° |
| 2026-05-06 20:19 | -22.79957 | -43.24619 | 35 ft | 119 kts | 74° |
| 2026-05-06 20:19 | -22.79685 | -43.23561 | 29 ft | 170 kts | 76° |
| 2026-05-06 20:19 | -22.79321 | -43.22222 | 259 ft | 192 kts | 77° |
| 2026-05-06 20:20 | -22.79050 | -43.20837 | 1004 ft | 188 kts | 78° |
| 2026-05-06 20:20 | -22.78765 | -43.19446 | 1683 ft | 192 kts | 77° |
| 2026-05-06 20:20 | -22.78452 | -43.17961 | 2012 ft | 214 kts | 77° |
| 2026-05-06 20:20 | -22.78098 | -43.16295 | 2339 ft | 238 kts | 77° |
| 2026-05-06 20:21 | -22.77724 | -43.14547 | 3103 ft | 242 kts | 76° |
| 2026-05-06 20:21 | -22.77328 | -43.12707 | 3596 ft | 260 kts | 76° |
| 2026-05-06 20:21 | -22.76913 | -43.10779 | 4399 ft | 263 kts | 76° |
| 2026-05-06 20:21 | -22.76494 | -43.08835 | 5201 ft | 267 kts | 75° |
| 2026-05-06 20:22 | -22.76069 | -43.06867 | 5981 ft | 270 kts | 76° |
| 2026-05-06 20:22 | -22.75637 | -43.04867 | 6741 ft | 274 kts | 76° |
| 2026-05-06 20:22 | -22.75206 | -43.02882 | 7448 ft | 276 kts | 74° |
| 2026-05-06 20:22 | -22.74365 | -43.00994 | 8194 ft | 277 kts | 50° |
| 2026-05-06 20:23 | -22.72854 | -42.99677 | 8794 ft | 285 kts | 25° |
| 2026-05-06 20:23 | -22.70935 | -42.99184 | 9545 ft | 287 kts | 1° |
| 2026-05-06 20:23 | -22.68970 | -42.99545 | 10151 ft | 294 kts | 339° |
| 2026-05-06 20:23 | -22.67032 | -43.00351 | 10592 ft | 306 kts | 347° |
| 2026-05-06 20:24 | -22.64911 | -43.00924 | 10830 ft | 325 kts | 337° |
| 2026-05-06 20:24 | -22.62847 | -43.02051 | 11184 ft | 338 kts | 335° |
| 2026-05-06 20:24 | -22.60661 | -43.03104 | 11643 ft | 346 kts | 338° |
| 2026-05-06 20:24 | -22.58436 | -43.04086 | 12349 ft | 347 kts | 339° |
| 2026-05-06 20:25 | -22.56167 | -43.05035 | 12945 ft | 352 kts | 339° |
| 2026-05-06 20:25 | -22.53863 | -43.05970 | 13599 ft | 354 kts | 340° |
| 2026-05-06 20:25 | -22.51526 | -43.06904 | 14030 ft | 360 kts | 340° |
| 2026-05-06 20:25 | -22.49177 | -43.07835 | 14110 ft | 360 kts | 340° |
| 2026-05-06 20:26 | -22.46826 | -43.08763 | 14155 ft | 358 kts | 340° |
| 2026-05-06 20:26 | -22.44491 | -43.09683 | 14152 ft | 356 kts | 340° |
| 2026-05-06 20:26 | -22.42167 | -43.10597 | 14156 ft | 356 kts | 340° |
| 2026-05-06 20:26 | -22.39835 | -43.11512 | 14157 ft | 355 kts | 340° |
| 2026-05-06 20:27 | -22.37512 | -43.12425 | 14154 ft | 356 kts | 340° |
| 2026-05-06 20:27 | -22.35188 | -43.13336 | 14156 ft | 356 kts | 340° |
| 2026-05-06 20:27 | -22.32859 | -43.14249 | 14158 ft | 356 kts | 340° |
| 2026-05-06 20:27 | -22.30532 | -43.15161 | 14162 ft | 356 kts | 340° |
| 2026-05-06 20:28 | -22.28204 | -43.16073 | 14160 ft | 356 kts | 340° |
| 2026-05-06 20:28 | -22.25900 | -43.16976 | 14161 ft | 355 kts | 340° |
| 2026-05-06 20:28 | -22.23579 | -43.17885 | 14158 ft | 355 kts | 340° |
| 2026-05-06 20:28 | -22.21256 | -43.18794 | 14165 ft | 355 kts | 340° |
| 2026-05-06 20:29 | -22.18929 | -43.19704 | 14160 ft | 356 kts | 340° |
| 2026-05-06 20:29 | -22.16600 | -43.20614 | 14163 ft | 355 kts | 340° |
| 2026-05-06 20:29 | -22.14368 | -43.21785 | 14456 ft | 357 kts | 329° |
| 2026-05-06 20:29 | -22.12224 | -43.23139 | 15011 ft | 361 kts | 330° |
| 2026-05-06 20:30 | -22.10032 | -43.24514 | 15479 ft | 366 kts | 330° |
| 2026-05-06 20:30 | -22.05575 | -43.27308 | 16475 ft | 375 kts | 330° |
| 2026-05-06 20:30 | -22.03311 | -43.28726 | 16957 ft | 378 kts | 330° |
| 2026-05-06 20:31 | -22.01019 | -43.30161 | 17469 ft | 382 kts | 329° |
| 2026-05-06 20:31 | -21.98740 | -43.31588 | 17963 ft | 385 kts | 329° |
| 2026-05-06 20:31 | -21.96376 | -43.33067 | 18408 ft | 390 kts | 329° |
| 2026-05-06 20:31 | -21.94058 | -43.34517 | 18837 ft | 392 kts | 329° |
| 2026-05-06 20:32 | -21.91688 | -43.36000 | 19267 ft | 394 kts | 329° |
| 2026-05-06 20:32 | -21.89306 | -43.37488 | 19701 ft | 396 kts | 329° |
| 2026-05-06 20:32 | -21.86905 | -43.38988 | 20167 ft | 398 kts | 329° |
| 2026-05-06 20:32 | -21.84536 | -43.40469 | 20584 ft | 401 kts | 329° |
| 2026-05-06 20:33 | -21.82121 | -43.41977 | 21025 ft | 402 kts | 329° |
| 2026-05-06 20:33 | -21.79693 | -43.43496 | 21458 ft | 404 kts | 329° |
| 2026-05-06 20:33 | -21.77246 | -43.45026 | 21854 ft | 407 kts | 329° |
| 2026-05-06 20:33 | -21.74786 | -43.46563 | 22269 ft | 409 kts | 329° |
| 2026-05-06 20:34 | -21.72325 | -43.48100 | 22697 ft | 411 kts | 329° |
| 2026-05-06 20:34 | -21.69841 | -43.49652 | 23092 ft | 414 kts | 329° |
| 2026-05-06 20:34 | -21.67337 | -43.51215 | 23504 ft | 416 kts | 329° |
| 2026-05-06 20:34 | -21.64827 | -43.52781 | 23889 ft | 418 kts | 328° |
| 2026-05-06 20:35 | -21.62309 | -43.54353 | 24207 ft | 420 kts | 329° |
| 2026-05-06 20:35 | -21.59771 | -43.55935 | 24522 ft | 423 kts | 329° |
| 2026-05-06 20:35 | -21.57212 | -43.57527 | 24833 ft | 426 kts | 329° |
| 2026-05-06 20:35 | -21.54646 | -43.59120 | 25161 ft | 428 kts | 328° |
| 2026-05-06 20:36 | -21.52085 | -43.60708 | 25484 ft | 431 kts | 328° |
| 2026-05-06 20:36 | -21.49485 | -43.62320 | 25813 ft | 433 kts | 328° |
| 2026-05-06 20:36 | -21.46872 | -43.63939 | 26122 ft | 436 kts | 328° |
| 2026-05-06 20:36 | -21.44232 | -43.65574 | 26396 ft | 439 kts | 328° |
| 2026-05-06 20:37 | -21.41579 | -43.67217 | 26720 ft | 441 kts | 328° |
| 2026-05-06 20:37 | -21.38909 | -43.68870 | 27008 ft | 444 kts | 328° |
| 2026-05-06 20:37 | -21.36226 | -43.70529 | 27300 ft | 447 kts | 328° |
| 2026-05-06 20:37 | -21.33528 | -43.72198 | 27593 ft | 449 kts | 328° |
| 2026-05-06 20:38 | -21.30817 | -43.73874 | 27872 ft | 451 kts | 328° |
| 2026-05-06 20:38 | -21.29012 | -43.74989 | 28056 ft | 453 kts | 328° |
| 2026-05-06 20:38 | -21.26290 | -43.76709 | 28325 ft | 455 kts | 326° |
| 2026-05-06 20:38 | -21.23586 | -43.78486 | 28608 ft | 457 kts | 326° |
| 2026-05-06 20:39 | -21.20865 | -43.80262 | 28870 ft | 459 kts | 326° |
| 2026-05-06 20:39 | -21.17233 | -43.82628 | 29202 ft | 462 kts | 326° |
| 2026-05-06 20:39 | -21.15364 | -43.83844 | 29347 ft | 464 kts | 326° |
| 2026-05-06 20:39 | -21.12595 | -43.85645 | 29496 ft | 468 kts | 326° |
| 2026-05-06 20:40 | -21.09843 | -43.87435 | 29763 ft | 470 kts | 325° |
| 2026-05-06 20:40 | -21.07041 | -43.89256 | 29926 ft | 472 kts | 325° |
| 2026-05-06 20:40 | -21.04224 | -43.91085 | 30168 ft | 474 kts | 325° |
| 2026-05-06 20:40 | -21.01389 | -43.92926 | 30393 ft | 477 kts | 325° |
| 2026-05-06 20:41 | -20.98535 | -43.94779 | 30561 ft | 479 kts | 325° |
| 2026-05-06 20:41 | -20.95679 | -43.96631 | 30753 ft | 482 kts | 325° |
| 2026-05-06 20:41 | -20.92809 | -43.98492 | 30965 ft | 483 kts | 325° |
| 2026-05-06 20:41 | -20.89923 | -44.00362 | 31151 ft | 486 kts | 325° |
| 2026-05-06 20:42 | -20.87029 | -44.02237 | 31348 ft | 488 kts | 325° |
| 2026-05-06 20:42 | -20.84109 | -44.04128 | 31526 ft | 490 kts | 324° |
| 2026-05-06 20:42 | -20.81181 | -44.06023 | 31670 ft | 493 kts | 324° |
| 2026-05-06 20:42 | -20.78278 | -44.07902 | 31888 ft | 494 kts | 324° |
| 2026-05-06 20:43 | -20.75345 | -44.09813 | 32132 ft | 494 kts | 324° |
| 2026-05-06 20:43 | -20.72409 | -44.11729 | 32385 ft | 495 kts | 323° |
| 2026-05-06 20:43 | -20.69474 | -44.13645 | 32615 ft | 495 kts | 323° |
| 2026-05-06 20:43 | -20.66528 | -44.15567 | 32806 ft | 497 kts | 323° |
| 2026-05-06 20:44 | -20.63563 | -44.17490 | 33021 ft | 498 kts | 324° |
| 2026-05-06 20:44 | -20.60597 | -44.19396 | 33262 ft | 498 kts | 324° |
| 2026-05-06 20:44 | -20.57629 | -44.21307 | 33495 ft | 498 kts | 323° |
| 2026-05-06 20:44 | -20.54652 | -44.23222 | 33713 ft | 499 kts | 323° |
| 2026-05-06 20:45 | -20.51678 | -44.25136 | 33876 ft | 501 kts | 323° |
| 2026-05-06 20:45 | -20.48684 | -44.27060 | 34078 ft | 502 kts | 323° |
| 2026-05-06 20:45 | -20.45730 | -44.28958 | 34281 ft | 502 kts | 323° |
| 2026-05-06 20:45 | -20.42743 | -44.30880 | 34468 ft | 502 kts | 323° |
| 2026-05-06 20:46 | -20.39750 | -44.32806 | 34644 ft | 501 kts | 323° |
| 2026-05-06 20:46 | -20.36765 | -44.34727 | 34811 ft | 502 kts | 322° |
| 2026-05-06 20:46 | -20.33775 | -44.36649 | 34992 ft | 502 kts | 322° |
| 2026-05-06 20:46 | -20.30784 | -44.38572 | 35164 ft | 501 kts | 322° |
| 2026-05-06 20:47 | -20.27794 | -44.40492 | 35355 ft | 501 kts | 322° |
| 2026-05-06 20:47 | -20.24810 | -44.42408 | 35551 ft | 500 kts | 322° |
| 2026-05-06 20:47 | -20.21879 | -44.44289 | 35768 ft | 499 kts | 322° |
| 2026-05-06 20:47 | -20.18906 | -44.46196 | 35967 ft | 499 kts | 322° |
| 2026-05-06 20:48 | -20.15932 | -44.48104 | 36111 ft | 499 kts | 322° |
| 2026-05-06 20:48 | -20.09974 | -44.51923 | 36115 ft | 498 kts | 322° |
| 2026-05-06 20:49 | -20.04061 | -44.55711 | 36143 ft | 498 kts | 322° |
| 2026-05-06 20:49 | -19.98126 | -44.59509 | 36117 ft | 497 kts | 322° |
| 2026-05-06 20:50 | -19.92191 | -44.63304 | 36125 ft | 497 kts | 322° |
| 2026-05-06 20:50 | -19.86268 | -44.67088 | 36110 ft | 496 kts | 322° |
| 2026-05-06 20:51 | -19.80390 | -44.70840 | 36121 ft | 497 kts | 322° |
| 2026-05-06 20:51 | -19.74460 | -44.74623 | 36121 ft | 497 kts | 322° |
| 2026-05-06 20:52 | -19.68521 | -44.78407 | 36119 ft | 497 kts | 322° |
| 2026-05-06 20:52 | -19.62589 | -44.82183 | 36108 ft | 497 kts | 322° |
| 2026-05-06 20:53 | -19.56653 | -44.85959 | 36112 ft | 497 kts | 322° |
| 2026-05-06 20:53 | -19.50732 | -44.89722 | 36111 ft | 497 kts | 322° |
| 2026-05-06 20:54 | -19.44800 | -44.93488 | 36104 ft | 497 kts | 322° |
| 2026-05-06 20:54 | -19.38856 | -44.97259 | 36098 ft | 497 kts | 322° |
| 2026-05-06 20:55 | -19.32923 | -45.01020 | 36099 ft | 497 kts | 322° |
| 2026-05-06 20:55 | -19.26992 | -45.04777 | 36106 ft | 497 kts | 322° |
| 2026-05-06 20:56 | -19.21047 | -45.08539 | 36096 ft | 497 kts | 322° |
| 2026-05-06 20:56 | -19.15140 | -45.12273 | 36095 ft | 497 kts | 322° |
| 2026-05-06 20:57 | -19.09203 | -45.16024 | 36100 ft | 497 kts | 322° |
| 2026-05-06 20:57 | -19.03258 | -45.19776 | 36084 ft | 497 kts | 322° |
| 2026-05-06 20:58 | -18.97323 | -45.23519 | 36087 ft | 496 kts | 322° |
| 2026-05-06 20:58 | -18.91385 | -45.27260 | 36090 ft | 496 kts | 322° |
| 2026-05-06 20:59 | -18.85448 | -45.30998 | 36089 ft | 496 kts | 322° |
| 2026-05-06 20:59 | -18.79511 | -45.34733 | 36086 ft | 496 kts | 322° |
| 2026-05-06 21:00 | -18.73606 | -45.38445 | 36080 ft | 496 kts | 322° |
| 2026-05-06 21:00 | -18.67666 | -45.42175 | 36095 ft | 496 kts | 322° |
| 2026-05-06 21:01 | -18.61737 | -45.45896 | 36094 ft | 496 kts | 322° |
| 2026-05-06 21:01 | -18.55811 | -45.49611 | 36087 ft | 495 kts | 322° |
| 2026-05-06 21:02 | -18.49881 | -45.53327 | 36096 ft | 496 kts | 322° |
| 2026-05-06 21:02 | -18.43977 | -45.57066 | 36094 ft | 492 kts | 318° |
| 2026-05-06 21:03 | -18.38514 | -45.61270 | 36108 ft | 489 kts | 316° |
| 2026-05-06 21:03 | -18.33047 | -45.65536 | 36094 ft | 488 kts | 316° |
| 2026-05-06 21:04 | -18.27581 | -45.69801 | 36102 ft | 489 kts | 316° |
| 2026-05-06 21:04 | -18.22122 | -45.74059 | 36096 ft | 489 kts | 316° |
| 2026-05-06 21:05 | -18.16650 | -45.78322 | 36092 ft | 488 kts | 316° |
| 2026-05-06 21:05 | -18.11225 | -45.82546 | 36105 ft | 488 kts | 316° |
| 2026-05-06 21:06 | -18.05768 | -45.86792 | 36105 ft | 488 kts | 316° |
| 2026-05-06 21:06 | -18.00312 | -45.91032 | 36101 ft | 488 kts | 317° |
| 2026-05-06 21:07 | -17.94854 | -45.95272 | 36105 ft | 487 kts | 316° |
| 2026-05-06 21:07 | -17.89399 | -45.99506 | 36090 ft | 487 kts | 317° |
| 2026-05-06 21:08 | -17.83949 | -46.03733 | 36088 ft | 487 kts | 317° |
| 2026-05-06 21:08 | -17.78495 | -46.07959 | 36084 ft | 487 kts | 317° |
| 2026-05-06 21:09 | -17.73048 | -46.12177 | 36089 ft | 487 kts | 317° |
| 2026-05-06 21:09 | -17.67625 | -46.16373 | 36070 ft | 487 kts | 317° |
| 2026-05-06 21:10 | -17.62176 | -46.20585 | 36084 ft | 486 kts | 317° |
| 2026-05-06 21:10 | -17.56738 | -46.24786 | 36076 ft | 485 kts | 317° |
| 2026-05-06 21:11 | -17.51303 | -46.28982 | 36072 ft | 485 kts | 317° |
| 2026-05-06 21:11 | -17.45865 | -46.33176 | 36077 ft | 485 kts | 317° |
| 2026-05-06 21:12 | -17.40430 | -46.37365 | 36055 ft | 485 kts | 317° |
| 2026-05-06 21:12 | -17.35044 | -46.41514 | 36065 ft | 483 kts | 317° |
| 2026-05-06 21:13 | -17.29623 | -46.45685 | 36072 ft | 483 kts | 317° |
| 2026-05-06 21:13 | -17.24210 | -46.49848 | 36072 ft | 483 kts | 317° |
| 2026-05-06 21:14 | -17.18788 | -46.54014 | 36061 ft | 483 kts | 317° |
| 2026-05-06 21:14 | -17.13394 | -46.58190 | 36068 ft | 480 kts | 313° |
| 2026-05-06 21:15 | -17.08372 | -46.62740 | 36074 ft | 478 kts | 313° |
| 2026-05-06 21:15 | -17.03321 | -46.67246 | 36079 ft | 478 kts | 313° |
| 2026-05-06 21:16 | -16.98254 | -46.71745 | 36068 ft | 478 kts | 313° |
| 2026-05-06 21:16 | -16.93188 | -46.76239 | 36077 ft | 477 kts | 313° |
| 2026-05-06 21:17 | -16.88128 | -46.80724 | 36081 ft | 477 kts | 313° |
| 2026-05-06 21:17 | -16.83091 | -46.85186 | 36084 ft | 477 kts | 313° |
| 2026-05-06 21:18 | -16.78019 | -46.89675 | 36077 ft | 477 kts | 313° |
| 2026-05-06 21:18 | -16.72954 | -46.94155 | 36086 ft | 477 kts | 313° |
| 2026-05-06 21:19 | -16.67886 | -46.98633 | 36082 ft | 477 kts | 314° |
| 2026-05-06 21:19 | -16.62829 | -47.03100 | 36089 ft | 476 kts | 313° |
| 2026-05-06 21:20 | -16.57773 | -47.07563 | 36090 ft | 476 kts | 314° |
| 2026-05-06 21:20 | -16.52719 | -47.12020 | 36087 ft | 476 kts | 314° |
| 2026-05-06 21:21 | -16.47663 | -47.16477 | 36094 ft | 476 kts | 314° |
| 2026-05-06 21:21 | -16.42636 | -47.20904 | 36087 ft | 476 kts | 314° |
| 2026-05-06 21:22 | -16.37743 | -47.25492 | 36092 ft | 469 kts | 307° |
| 2026-05-06 21:22 | -16.33179 | -47.30375 | 36090 ft | 471 kts | 308° |
| 2026-05-06 21:23 | -16.28556 | -47.35219 | 36091 ft | 471 kts | 308° |
| 2026-05-06 21:23 | -16.23931 | -47.40050 | 36087 ft | 471 kts | 309° |
| 2026-05-06 21:24 | -16.19308 | -47.44875 | 36088 ft | 470 kts | 309° |
| 2026-05-06 21:24 | -16.14689 | -47.49692 | 36094 ft | 470 kts | 309° |
| 2026-05-06 21:25 | -16.10072 | -47.54503 | 36088 ft | 470 kts | 309° |
| 2026-05-06 21:25 | -16.05483 | -47.59283 | 36091 ft | 470 kts | 309° |
| 2026-05-06 21:26 | -16.00869 | -47.64085 | 36087 ft | 469 kts | 309° |
| 2026-05-06 21:26 | -15.96252 | -47.68886 | 36093 ft | 470 kts | 309° |
| 2026-05-06 21:27 | -15.91638 | -47.73682 | 36092 ft | 468 kts | 309° |
| 2026-05-06 21:27 | -15.87022 | -47.78477 | 36103 ft | 469 kts | 309° |
| 2026-05-06 21:28 | -15.82420 | -47.83269 | 36179 ft | 468 kts | 309° |
| 2026-05-06 21:28 | -15.78596 | -47.87251 | 36183 ft | 468 kts | 309° |
| 2026-05-06 21:29 | -15.73999 | -47.92035 | 36163 ft | 468 kts | 309° |
| 2026-05-06 21:29 | -15.69403 | -47.96815 | 36150 ft | 467 kts | 309° |
| 2026-05-06 21:30 | -15.64808 | -48.01591 | 36129 ft | 467 kts | 309° |
| 2026-05-06 21:30 | -15.60217 | -48.06359 | 36102 ft | 467 kts | 309° |
| 2026-05-06 21:31 | -15.55627 | -48.11123 | 36091 ft | 467 kts | 309° |
| 2026-05-06 21:31 | -15.51072 | -48.15847 | 36074 ft | 466 kts | 309° |
| 2026-05-06 21:32 | -15.46339 | -48.20474 | 36072 ft | 467 kts | 311° |
| 2026-05-06 21:32 | -15.39173 | -48.27329 | 36068 ft | 467 kts | 311° |
| 2026-05-06 21:33 | -15.34403 | -48.31896 | 36053 ft | 467 kts | 311° |
| 2026-05-06 21:33 | -15.29626 | -48.36467 | 36051 ft | 467 kts | 311° |
| 2026-05-06 21:34 | -15.24860 | -48.41025 | 36052 ft | 466 kts | 311° |
| 2026-05-06 21:34 | -15.20111 | -48.45564 | 36052 ft | 466 kts | 312° |
| 2026-05-06 21:35 | -15.15349 | -48.50112 | 36048 ft | 466 kts | 312° |
| 2026-05-06 21:35 | -15.10571 | -48.54673 | 36045 ft | 466 kts | 312° |
| 2026-05-06 21:36 | -15.05804 | -48.59220 | 36041 ft | 465 kts | 312° |
| 2026-05-06 21:36 | -15.03554 | -48.61598 | 36022 ft | 457 kts | 301° |
| 2026-05-06 21:36 | -15.02003 | -48.64353 | 36034 ft | 444 kts | 287° |
| 2026-05-06 21:37 | -14.99667 | -48.70285 | 36033 ft | 446 kts | 286° |
| 2026-05-06 21:37 | -14.97447 | -48.76269 | 36040 ft | 446 kts | 285° |
| 2026-05-06 21:38 | -14.95264 | -48.82277 | 36041 ft | 445 kts | 285° |
| 2026-05-06 21:38 | -14.93090 | -48.88280 | 36036 ft | 445 kts | 285° |
| 2026-05-06 21:39 | -14.90917 | -48.94269 | 36021 ft | 445 kts | 285° |
| 2026-05-06 21:39 | -14.88754 | -49.00232 | 36025 ft | 445 kts | 285° |
| 2026-05-06 21:40 | -14.86573 | -49.06234 | 36029 ft | 445 kts | 285° |
| 2026-05-06 21:40 | -14.84396 | -49.12222 | 36024 ft | 445 kts | 285° |
| 2026-05-06 21:41 | -14.82217 | -49.18210 | 36024 ft | 445 kts | 285° |
| 2026-05-06 21:41 | -14.80038 | -49.24193 | 36023 ft | 445 kts | 285° |
| 2026-05-06 21:42 | -14.77853 | -49.30184 | 36025 ft | 445 kts | 285° |
| 2026-05-06 21:42 | -14.75681 | -49.36137 | 36024 ft | 445 kts | 285° |
| 2026-05-06 21:43 | -14.73495 | -49.42122 | 36009 ft | 445 kts | 286° |
| 2026-05-06 21:43 | -14.71307 | -49.48108 | 36018 ft | 445 kts | 286° |
| 2026-05-06 21:44 | -14.69116 | -49.54094 | 36016 ft | 445 kts | 286° |
| 2026-05-06 21:44 | -14.66928 | -49.60071 | 36009 ft | 445 kts | 286° |
| 2026-05-06 21:45 | -14.64736 | -49.66049 | 36023 ft | 445 kts | 286° |
| 2026-05-06 21:45 | -14.62555 | -49.71994 | 36000 ft | 445 kts | 286° |
| 2026-05-06 21:46 | -14.60348 | -49.78004 | 35998 ft | 444 kts | 286° |
| 2026-05-06 21:46 | -14.58164 | -49.83947 | 35995 ft | 446 kts | 286° |
| 2026-05-06 21:47 | -14.55963 | -49.89929 | 35989 ft | 445 kts | 286° |
| 2026-05-06 21:47 | -14.53760 | -49.95912 | 36004 ft | 446 kts | 286° |
| 2026-05-06 21:48 | -14.51557 | -50.01892 | 35996 ft | 446 kts | 286° |
| 2026-05-06 21:48 | -14.49350 | -50.07874 | 35983 ft | 446 kts | 286° |
| 2026-05-06 21:49 | -14.47142 | -50.13856 | 35981 ft | 446 kts | 286° |
| 2026-05-06 21:49 | -14.44932 | -50.19836 | 35992 ft | 446 kts | 287° |
| 2026-05-06 21:50 | -14.42734 | -50.25780 | 35989 ft | 446 kts | 287° |
| 2026-05-06 21:50 | -14.40505 | -50.31801 | 35985 ft | 446 kts | 287° |
| 2026-05-06 21:51 | -14.38304 | -50.37741 | 35978 ft | 445 kts | 287° |
| 2026-05-06 21:51 | -14.36093 | -50.43703 | 35979 ft | 445 kts | 287° |
| 2026-05-06 21:52 | -14.33880 | -50.49668 | 35976 ft | 445 kts | 287° |
| 2026-05-06 21:52 | -14.31666 | -50.55628 | 35979 ft | 445 kts | 287° |
| 2026-05-06 21:53 | -14.29448 | -50.61594 | 35971 ft | 445 kts | 287° |
| 2026-05-06 21:53 | -14.27230 | -50.67555 | 35971 ft | 445 kts | 287° |
| 2026-05-06 21:54 | -14.25006 | -50.73526 | 35973 ft | 446 kts | 287° |
| 2026-05-06 21:54 | -14.22795 | -50.79457 | 35971 ft | 445 kts | 287° |
| 2026-05-06 21:55 | -14.20573 | -50.85414 | 35970 ft | 445 kts | 287° |
| 2026-05-06 21:55 | -14.18348 | -50.91372 | 35969 ft | 445 kts | 287° |
| 2026-05-06 21:56 | -14.16125 | -50.97322 | 35974 ft | 445 kts | 287° |
| 2026-05-06 21:56 | -14.13895 | -51.03285 | 35972 ft | 445 kts | 287° |
| 2026-05-06 21:57 | -14.11667 | -51.09237 | 35974 ft | 445 kts | 287° |
| 2026-05-06 21:57 | -14.09437 | -51.15189 | 35973 ft | 445 kts | 287° |
| 2026-05-06 21:58 | -14.07205 | -51.21139 | 35972 ft | 445 kts | 287° |
| 2026-05-06 21:58 | -14.04976 | -51.27080 | 35972 ft | 445 kts | 287° |
| 2026-05-06 21:59 | -14.02755 | -51.32993 | 35969 ft | 445 kts | 287° |
| 2026-05-06 21:59 | -14.00516 | -51.38948 | 35971 ft | 445 kts | 287° |
| 2026-05-06 22:00 | -13.98281 | -51.44889 | 35976 ft | 445 kts | 287° |
| 2026-05-06 22:00 | -13.96049 | -51.50815 | 35977 ft | 445 kts | 287° |
| 2026-05-06 22:01 | -13.93806 | -51.56767 | 35975 ft | 445 kts | 287° |
| 2026-05-06 22:01 | -13.91566 | -51.62707 | 35974 ft | 445 kts | 287° |
| 2026-05-06 22:02 | -13.89327 | -51.68638 | 35973 ft | 445 kts | 287° |
| 2026-05-06 22:02 | -13.87086 | -51.74569 | 35974 ft | 445 kts | 287° |
| 2026-05-06 22:03 | -13.84841 | -51.80505 | 35974 ft | 445 kts | 287° |
| 2026-05-06 22:03 | -13.82606 | -51.86412 | 35975 ft | 445 kts | 288° |
| 2026-05-06 22:04 | -13.80357 | -51.92348 | 35981 ft | 446 kts | 288° |
| 2026-05-06 22:04 | -13.78106 | -51.98289 | 35980 ft | 446 kts | 288° |
| 2026-05-06 22:05 | -13.75848 | -52.04242 | 35987 ft | 446 kts | 288° |
| 2026-05-06 22:05 | -13.73597 | -52.10173 | 35985 ft | 446 kts | 288° |
| 2026-05-06 22:06 | -13.71338 | -52.16118 | 35990 ft | 446 kts | 288° |
| 2026-05-06 22:06 | -13.69078 | -52.22062 | 35993 ft | 446 kts | 288° |
| 2026-05-06 22:07 | -13.66818 | -52.27952 | 35986 ft | 447 kts | 291° |
| 2026-05-06 22:07 | -13.63696 | -52.33521 | 35978 ft | 451 kts | 297° |
| 2026-05-06 22:08 | -13.60495 | -52.39088 | 35989 ft | 452 kts | 297° |
| 2026-05-06 22:08 | -13.57297 | -52.44631 | 35986 ft | 452 kts | 297° |
| 2026-05-06 22:09 | -13.54082 | -52.50196 | 35983 ft | 452 kts | 297° |
| 2026-05-06 22:09 | -13.50869 | -52.55754 | 35982 ft | 452 kts | 297° |
| 2026-05-06 22:10 | -13.47651 | -52.61317 | 35987 ft | 452 kts | 297° |
| 2026-05-06 22:10 | -13.44451 | -52.66848 | 35984 ft | 452 kts | 297° |
| 2026-05-06 22:11 | -13.41239 | -52.72392 | 35984 ft | 453 kts | 297° |
| 2026-05-06 22:11 | -13.38009 | -52.77967 | 35982 ft | 454 kts | 297° |
| 2026-05-06 22:12 | -13.34779 | -52.83536 | 35985 ft | 454 kts | 297° |
| 2026-05-06 22:12 | -13.31547 | -52.89106 | 35981 ft | 454 kts | 297° |
| 2026-05-06 22:13 | -13.28313 | -52.94676 | 35984 ft | 454 kts | 297° |
| 2026-05-06 22:13 | -13.25078 | -53.00243 | 35979 ft | 454 kts | 297° |
| 2026-05-06 22:14 | -13.21840 | -53.05813 | 35982 ft | 454 kts | 297° |
| 2026-05-06 22:14 | -13.18606 | -53.11373 | 35976 ft | 454 kts | 297° |
| 2026-05-06 22:15 | -13.15360 | -53.16949 | 35981 ft | 455 kts | 297° |
| 2026-05-06 22:15 | -13.12662 | -53.21580 | 35980 ft | 455 kts | 297° |
| 2026-05-06 22:16 | -13.09418 | -53.27147 | 35971 ft | 455 kts | 297° |
| 2026-05-06 22:16 | -13.05639 | -53.33627 | 35974 ft | 455 kts | 297° |
| 2026-05-06 22:17 | -13.02388 | -53.39197 | 35974 ft | 455 kts | 297° |
| 2026-05-06 22:17 | -12.99663 | -53.43864 | 35969 ft | 455 kts | 297° |
| 2026-05-06 22:18 | -12.96403 | -53.49428 | 35968 ft | 456 kts | 300° |
| 2026-05-06 22:18 | -12.92662 | -53.54704 | 35974 ft | 458 kts | 302° |
| 2026-05-06 22:19 | -12.88972 | -53.59961 | 35964 ft | 458 kts | 302° |
| 2026-05-06 22:19 | -12.85264 | -53.65265 | 35963 ft | 458 kts | 302° |
| 2026-05-06 22:20 | -12.81556 | -53.70568 | 35963 ft | 458 kts | 302° |
| 2026-05-06 22:20 | -12.77847 | -53.75868 | 35963 ft | 458 kts | 302° |
| 2026-05-06 22:21 | -12.74141 | -53.81163 | 35968 ft | 457 kts | 302° |
| 2026-05-06 22:21 | -12.70431 | -53.86460 | 35960 ft | 458 kts | 302° |
| 2026-05-06 22:22 | -12.66713 | -53.91765 | 35962 ft | 458 kts | 302° |
| 2026-05-06 22:22 | -12.62999 | -53.97062 | 35961 ft | 458 kts | 302° |
| 2026-05-06 22:23 | -12.59288 | -54.02350 | 35955 ft | 457 kts | 303° |
| 2026-05-06 22:23 | -12.55572 | -54.07643 | 35958 ft | 457 kts | 303° |
| 2026-05-06 22:24 | -12.51880 | -54.12900 | 35956 ft | 457 kts | 303° |
| 2026-05-06 22:24 | -12.48161 | -54.18192 | 35959 ft | 457 kts | 303° |
| 2026-05-06 22:25 | -12.44443 | -54.23479 | 35960 ft | 457 kts | 303° |
| 2026-05-06 22:25 | -12.40727 | -54.28760 | 35956 ft | 457 kts | 303° |
| 2026-05-06 22:26 | -12.37010 | -54.34039 | 35957 ft | 457 kts | 303° |
| 2026-05-06 22:26 | -12.33295 | -54.39313 | 35958 ft | 457 kts | 303° |
| 2026-05-06 22:27 | -12.29579 | -54.44586 | 35957 ft | 457 kts | 303° |
| 2026-05-06 22:27 | -12.25864 | -54.49853 | 35959 ft | 457 kts | 303° |
| 2026-05-06 22:28 | -12.22145 | -54.55124 | 35958 ft | 457 kts | 303° |
| 2026-05-06 22:28 | -12.18420 | -54.60400 | 35959 ft | 457 kts | 303° |
| 2026-05-06 22:29 | -12.14698 | -54.65670 | 35959 ft | 457 kts | 303° |
| 2026-05-06 22:29 | -12.10994 | -54.70911 | 35956 ft | 457 kts | 303° |
| 2026-05-06 22:30 | -12.07263 | -54.76188 | 35957 ft | 457 kts | 303° |
| 2026-05-06 22:30 | -12.03541 | -54.81448 | 35960 ft | 457 kts | 303° |
| 2026-05-06 22:31 | -11.99815 | -54.86711 | 35956 ft | 457 kts | 303° |
| 2026-05-06 22:31 | -11.96094 | -54.91965 | 35957 ft | 457 kts | 303° |
| 2026-05-06 22:32 | -11.92362 | -54.97231 | 35958 ft | 457 kts | 303° |
| 2026-05-06 22:32 | -11.88640 | -55.02481 | 35955 ft | 457 kts | 303° |
| 2026-05-06 22:33 | -11.84914 | -55.07734 | 35960 ft | 456 kts | 303° |
| 2026-05-06 22:33 | -11.81192 | -55.12978 | 35959 ft | 456 kts | 303° |
| 2026-05-06 22:34 | -11.77467 | -55.18224 | 35961 ft | 456 kts | 303° |
| 2026-05-06 22:34 | -11.74122 | -55.23633 | 35968 ft | 451 kts | 292° |
| 2026-05-06 22:35 | -11.71401 | -55.29428 | 35950 ft | 453 kts | 293° |
| 2026-05-06 22:35 | -11.68675 | -55.35232 | 35960 ft | 453 kts | 293° |
| 2026-05-06 22:36 | -11.65953 | -55.41033 | 35960 ft | 453 kts | 293° |
| 2026-05-06 22:36 | -11.63230 | -55.46832 | 35960 ft | 453 kts | 293° |
| 2026-05-06 22:37 | -11.60506 | -55.52631 | 35960 ft | 453 kts | 293° |
| 2026-05-06 22:37 | -11.57783 | -55.58423 | 35960 ft | 453 kts | 293° |
| 2026-05-06 22:38 | -11.55060 | -55.64212 | 35960 ft | 453 kts | 293° |
| 2026-05-06 22:38 | -11.52336 | -55.70000 | 35959 ft | 453 kts | 293° |
| 2026-05-06 22:39 | -11.49607 | -55.75795 | 35961 ft | 453 kts | 294° |
| 2026-05-06 22:39 | -11.46879 | -55.81584 | 35961 ft | 453 kts | 294° |
| 2026-05-06 22:40 | -11.44152 | -55.87366 | 35960 ft | 453 kts | 294° |
| 2026-05-06 22:40 | -11.41423 | -55.93150 | 35958 ft | 453 kts | 294° |
| 2026-05-06 22:41 | -11.37327 | -56.01824 | 35959 ft | 453 kts | 294° |
| 2026-05-06 22:42 | -11.34611 | -56.07572 | 35961 ft | 453 kts | 294° |
| 2026-05-06 22:42 | -11.31875 | -56.13358 | 35955 ft | 453 kts | 294° |
| 2026-05-06 22:43 | -11.29143 | -56.19132 | 35956 ft | 453 kts | 294° |
| 2026-05-06 22:43 | -11.26401 | -56.24925 | 35956 ft | 453 kts | 294° |
| 2026-05-06 22:44 | -11.23665 | -56.30702 | 35957 ft | 453 kts | 294° |
| 2026-05-06 22:44 | -11.20928 | -56.36475 | 35953 ft | 452 kts | 294° |
| 2026-05-06 22:45 | -11.18199 | -56.42230 | 35956 ft | 451 kts | 294° |
| 2026-05-06 22:45 | -11.15466 | -56.47991 | 35956 ft | 451 kts | 294° |
| 2026-05-06 22:46 | -11.12729 | -56.53755 | 35952 ft | 451 kts | 294° |
| 2026-05-06 22:46 | -11.09994 | -56.59512 | 35946 ft | 451 kts | 294° |
| 2026-05-06 22:47 | -11.07261 | -56.65261 | 35952 ft | 452 kts | 294° |
| 2026-05-06 22:47 | -11.04539 | -56.70983 | 35950 ft | 452 kts | 294° |
| 2026-05-06 22:48 | -11.01800 | -56.76738 | 35949 ft | 452 kts | 294° |
| 2026-05-06 22:48 | -10.99062 | -56.82489 | 35951 ft | 452 kts | 294° |
| 2026-05-06 22:49 | -10.96318 | -56.88248 | 35949 ft | 452 kts | 294° |
| 2026-05-06 22:49 | -10.93574 | -56.94004 | 35950 ft | 452 kts | 294° |
| 2026-05-06 22:50 | -10.90824 | -56.99768 | 35948 ft | 452 kts | 294° |
| 2026-05-06 22:50 | -10.88075 | -57.05529 | 35948 ft | 452 kts | 294° |
| 2026-05-06 22:51 | -10.85327 | -57.11281 | 35943 ft | 452 kts | 294° |
| 2026-05-06 22:51 | -10.82596 | -57.16997 | 35946 ft | 452 kts | 294° |
| 2026-05-06 22:52 | -10.79844 | -57.22752 | 35949 ft | 452 kts | 294° |
| 2026-05-06 22:52 | -10.77090 | -57.28509 | 35950 ft | 453 kts | 294° |
| 2026-05-06 22:53 | -10.74330 | -57.34277 | 35947 ft | 453 kts | 294° |
| 2026-05-06 22:53 | -10.71569 | -57.40040 | 35945 ft | 453 kts | 294° |
| 2026-05-06 22:54 | -10.68806 | -57.45806 | 35955 ft | 453 kts | 295° |
| 2026-05-06 22:54 | -10.66044 | -57.51568 | 35952 ft | 453 kts | 295° |
| 2026-05-06 22:55 | -10.63281 | -57.57326 | 35949 ft | 453 kts | 295° |
| 2026-05-06 22:55 | -10.60514 | -57.63092 | 35953 ft | 453 kts | 295° |
| 2026-05-06 22:56 | -10.57746 | -57.68854 | 35951 ft | 453 kts | 295° |
| 2026-05-06 22:56 | -10.54977 | -57.74616 | 35952 ft | 453 kts | 295° |
| 2026-05-06 22:57 | -10.52209 | -57.80374 | 35951 ft | 453 kts | 295° |
| 2026-05-06 22:57 | -10.49456 | -57.86096 | 35948 ft | 453 kts | 295° |
| 2026-05-06 22:58 | -10.46686 | -57.91851 | 35950 ft | 453 kts | 295° |
| 2026-05-06 22:58 | -10.43915 | -57.97605 | 35949 ft | 453 kts | 295° |
| 2026-05-06 22:59 | -10.41140 | -58.03363 | 35946 ft | 453 kts | 295° |
| 2026-05-06 22:59 | -10.38369 | -58.09110 | 35944 ft | 453 kts | 295° |
| 2026-05-06 23:00 | -10.35597 | -58.14857 | 35942 ft | 453 kts | 295° |
| 2026-05-06 23:00 | -10.32820 | -58.20609 | 35942 ft | 453 kts | 295° |
| 2026-05-06 23:01 | -10.30046 | -58.26354 | 35939 ft | 452 kts | 295° |
| 2026-05-06 23:01 | -10.27276 | -58.32085 | 35937 ft | 452 kts | 295° |
| 2026-05-06 23:02 | -10.24518 | -58.37791 | 35938 ft | 453 kts | 295° |
| 2026-05-06 23:02 | -10.21745 | -58.43525 | 35940 ft | 453 kts | 295° |
| 2026-05-06 23:03 | -10.18966 | -58.49267 | 35940 ft | 452 kts | 295° |
| 2026-05-06 23:03 | -10.16644 | -58.54061 | 35939 ft | 452 kts | 295° |
| 2026-05-06 23:04 | -10.13421 | -58.60715 | 35937 ft | 452 kts | 295° |
| 2026-05-06 23:04 | -10.10649 | -58.66434 | 35937 ft | 452 kts | 295° |
| 2026-05-06 23:05 | -10.08341 | -58.71191 | 35939 ft | 452 kts | 295° |
| 2026-05-06 23:05 | -10.05563 | -58.76918 | 35938 ft | 452 kts | 295° |
| 2026-05-06 23:06 | -10.02785 | -58.82639 | 35939 ft | 452 kts | 295° |
| 2026-05-06 23:06 | -10.00005 | -58.88364 | 35939 ft | 452 kts | 296° |
| 2026-05-06 23:07 | -9.97225 | -58.94084 | 35936 ft | 452 kts | 296° |
| 2026-05-06 23:07 | -9.94447 | -58.99798 | 35935 ft | 452 kts | 296° |
| 2026-05-06 23:08 | -9.91666 | -59.05514 | 35933 ft | 452 kts | 296° |
| 2026-05-06 23:08 | -9.88902 | -59.11194 | 35937 ft | 451 kts | 296° |
| 2026-05-06 23:09 | -9.86119 | -59.16910 | 35931 ft | 451 kts | 296° |
| 2026-05-06 23:09 | -9.83340 | -59.22614 | 35931 ft | 451 kts | 296° |
| 2026-05-06 23:10 | -9.80558 | -59.28323 | 35937 ft | 451 kts | 296° |
| 2026-05-06 23:10 | -9.77775 | -59.34028 | 35936 ft | 451 kts | 296° |
| 2026-05-06 23:11 | -9.74814 | -59.39628 | 35928 ft | 451 kts | 306° |
| 2026-05-06 23:11 | -9.71147 | -59.44797 | 35925 ft | 452 kts | 305° |
| 2026-05-06 23:12 | -9.67482 | -59.49983 | 35935 ft | 452 kts | 305° |
| 2026-05-06 23:12 | -9.63809 | -59.55171 | 35932 ft | 452 kts | 305° |
| 2026-05-06 23:13 | -9.60141 | -59.60349 | 35935 ft | 452 kts | 305° |
| 2026-05-06 23:13 | -9.56485 | -59.65507 | 35934 ft | 452 kts | 305° |
| 2026-05-06 23:14 | -9.52819 | -59.70678 | 35933 ft | 452 kts | 305° |
| 2026-05-06 23:14 | -9.49145 | -59.75857 | 35930 ft | 452 kts | 305° |
| 2026-05-06 23:15 | -9.45469 | -59.81038 | 35934 ft | 454 kts | 305° |
| 2026-05-06 23:15 | -9.41782 | -59.86231 | 35937 ft | 454 kts | 305° |
| 2026-05-06 23:16 | -9.38091 | -59.91428 | 35936 ft | 454 kts | 306° |
| 2026-05-06 23:16 | -9.34399 | -59.96624 | 35941 ft | 454 kts | 306° |
| 2026-05-06 23:17 | -9.30713 | -60.01810 | 35940 ft | 454 kts | 306° |
| 2026-05-06 23:17 | -9.27039 | -60.06976 | 35940 ft | 454 kts | 306° |
| 2026-05-06 23:18 | -9.23348 | -60.12165 | 35942 ft | 454 kts | 306° |
| 2026-05-06 23:18 | -9.19653 | -60.17356 | 35944 ft | 454 kts | 306° |
| 2026-05-06 23:19 | -9.15948 | -60.22560 | 35948 ft | 457 kts | 306° |
| 2026-05-06 23:19 | -9.12232 | -60.27778 | 35944 ft | 457 kts | 306° |
| 2026-05-06 23:20 | -9.08515 | -60.32994 | 35943 ft | 457 kts | 306° |
| 2026-05-06 23:20 | -9.04800 | -60.38205 | 35948 ft | 457 kts | 306° |
| 2026-05-06 23:21 | -9.01079 | -60.43423 | 35947 ft | 457 kts | 306° |
| 2026-05-06 23:21 | -8.97361 | -60.48635 | 35946 ft | 457 kts | 306° |
| 2026-05-06 23:22 | -8.93660 | -60.53820 | 35951 ft | 457 kts | 306° |
| 2026-05-06 23:22 | -8.89938 | -60.59033 | 35951 ft | 457 kts | 306° |
| 2026-05-06 23:23 | -8.86214 | -60.64246 | 35953 ft | 456 kts | 306° |
| 2026-05-06 23:23 | -8.82489 | -60.69459 | 35953 ft | 456 kts | 306° |
| 2026-05-06 23:24 | -8.78769 | -60.74663 | 35952 ft | 456 kts | 306° |
| 2026-05-06 23:24 | -8.75047 | -60.79867 | 35954 ft | 457 kts | 306° |
| 2026-05-06 23:25 | -8.71348 | -60.85037 | 35953 ft | 457 kts | 306° |
| 2026-05-06 23:25 | -8.67624 | -60.90241 | 35955 ft | 457 kts | 306° |
| 2026-05-06 23:26 | -8.63897 | -60.95446 | 35955 ft | 457 kts | 306° |
| 2026-05-06 23:26 | -8.60174 | -61.00645 | 35959 ft | 456 kts | 306° |
| 2026-05-06 23:27 | -8.56458 | -61.05831 | 35954 ft | 455 kts | 306° |
| 2026-05-06 23:27 | -8.52741 | -61.11016 | 35960 ft | 457 kts | 306° |
| 2026-05-06 23:28 | -8.49012 | -61.16216 | 35956 ft | 456 kts | 306° |
| 2026-05-06 23:28 | -8.45285 | -61.21412 | 35951 ft | 456 kts | 306° |
| 2026-05-06 23:29 | -8.41560 | -61.26602 | 35954 ft | 456 kts | 306° |
| 2026-05-06 23:29 | -8.37861 | -61.31756 | 35959 ft | 456 kts | 306° |
| 2026-05-06 23:30 | -8.34107 | -61.36983 | 35958 ft | 457 kts | 306° |
| 2026-05-06 23:30 | -8.30371 | -61.42182 | 35963 ft | 457 kts | 306° |
| 2026-05-06 23:31 | -8.26663 | -61.47342 | 35955 ft | 456 kts | 306° |
| 2026-05-06 23:31 | -8.22934 | -61.52529 | 35957 ft | 457 kts | 306° |
| 2026-05-06 23:32 | -8.19203 | -61.57717 | 35959 ft | 457 kts | 306° |
| 2026-05-06 23:32 | -8.15471 | -61.62904 | 35960 ft | 457 kts | 306° |
| 2026-05-06 23:33 | -8.11733 | -61.68098 | 35960 ft | 457 kts | 306° |
| 2026-05-06 23:33 | -8.08001 | -61.73282 | 35958 ft | 457 kts | 306° |
| 2026-05-06 23:34 | -8.04266 | -61.78466 | 35959 ft | 457 kts | 306° |
| 2026-05-06 23:34 | -8.00527 | -61.83656 | 35957 ft | 458 kts | 306° |
| 2026-05-06 23:35 | -7.96773 | -61.88865 | 35957 ft | 459 kts | 306° |
| 2026-05-06 23:35 | -7.93016 | -61.94074 | 35962 ft | 459 kts | 307° |
| 2026-05-06 23:36 | -7.89262 | -61.99280 | 35957 ft | 459 kts | 307° |
| 2026-05-06 23:36 | -7.85508 | -62.04482 | 35957 ft | 459 kts | 307° |
| 2026-05-06 23:37 | -7.81751 | -62.09688 | 35956 ft | 459 kts | 307° |
| 2026-05-06 23:37 | -7.77987 | -62.14901 | 35958 ft | 459 kts | 307° |
| 2026-05-06 23:38 | -7.74231 | -62.20100 | 35961 ft | 459 kts | 307° |
| 2026-05-06 23:38 | -7.70488 | -62.25280 | 35958 ft | 461 kts | 307° |
| 2026-05-06 23:39 | -7.66705 | -62.30515 | 35962 ft | 462 kts | 307° |
| 2026-05-06 23:39 | -7.62923 | -62.35746 | 35961 ft | 462 kts | 307° |
| 2026-05-06 23:40 | -7.59139 | -62.40977 | 35958 ft | 462 kts | 307° |
| 2026-05-06 23:40 | -7.55356 | -62.46206 | 35958 ft | 462 kts | 307° |
| 2026-05-06 23:41 | -7.51570 | -62.51437 | 35962 ft | 462 kts | 307° |
| 2026-05-06 23:41 | -7.47790 | -62.56658 | 35959 ft | 460 kts | 307° |
| 2026-05-06 23:42 | -7.44024 | -62.61856 | 35960 ft | 460 kts | 307° |
| 2026-05-06 23:42 | -7.40259 | -62.67055 | 35960 ft | 459 kts | 306° |
| 2026-05-06 23:43 | -7.36492 | -62.72252 | 35962 ft | 459 kts | 306° |
| 2026-05-06 23:43 | -7.32729 | -62.77442 | 35961 ft | 459 kts | 307° |
| 2026-05-06 23:44 | -7.28966 | -62.82630 | 35961 ft | 459 kts | 307° |
| 2026-05-06 23:44 | -7.25201 | -62.87821 | 35961 ft | 459 kts | 307° |
| 2026-05-06 23:45 | -7.21432 | -62.93014 | 35961 ft | 459 kts | 307° |
| 2026-05-06 23:45 | -7.17689 | -62.98171 | 35961 ft | 459 kts | 307° |
| 2026-05-06 23:46 | -7.13921 | -63.03358 | 35963 ft | 459 kts | 307° |
| 2026-05-06 23:46 | -7.10154 | -63.08545 | 35962 ft | 459 kts | 307° |
| 2026-05-06 23:47 | -7.06387 | -63.13729 | 35962 ft | 459 kts | 307° |
| 2026-05-06 23:47 | -7.02616 | -63.18918 | 35967 ft | 459 kts | 307° |
| 2026-05-06 23:48 | -6.98846 | -63.24102 | 35963 ft | 459 kts | 307° |
| 2026-05-06 23:48 | -6.95077 | -63.29285 | 35964 ft | 459 kts | 307° |
| 2026-05-06 23:49 | -6.91303 | -63.34472 | 35965 ft | 459 kts | 307° |
| 2026-05-06 23:49 | -6.87555 | -63.39622 | 35966 ft | 459 kts | 307° |
| 2026-05-06 23:50 | -6.83786 | -63.44798 | 35968 ft | 458 kts | 307° |
| 2026-05-06 23:50 | -6.78130 | -63.52566 | 35967 ft | 460 kts | 307° |
| 2026-05-06 23:51 | -6.74953 | -63.56928 | 35961 ft | 461 kts | 307° |
| 2026-05-06 23:51 | -6.71189 | -63.62092 | 35964 ft | 461 kts | 307° |
| 2026-05-06 23:52 | -6.67395 | -63.67298 | 35966 ft | 461 kts | 307° |
| 2026-05-06 23:52 | -6.63606 | -63.72495 | 35964 ft | 461 kts | 307° |
| 2026-05-06 23:53 | -6.59815 | -63.77694 | 35966 ft | 460 kts | 307° |
| 2026-05-06 23:53 | -6.56030 | -63.82881 | 35965 ft | 460 kts | 307° |
| 2026-05-06 23:54 | -6.52245 | -63.88068 | 35962 ft | 460 kts | 307° |
| 2026-05-06 23:54 | -6.48461 | -63.93252 | 35963 ft | 460 kts | 307° |
| 2026-05-06 23:55 | -6.44873 | -63.98596 | 35967 ft | 462 kts | 300° |
| 2026-05-06 23:55 | -6.41655 | -64.04193 | 35965 ft | 463 kts | 301° |
| 2026-05-06 23:56 | -6.38375 | -64.09760 | 35966 ft | 462 kts | 301° |
| 2026-05-06 23:56 | -6.35092 | -64.15315 | 35967 ft | 462 kts | 301° |
| 2026-05-06 23:57 | -6.31826 | -64.20840 | 35964 ft | 462 kts | 301° |
| 2026-05-06 23:57 | -6.28539 | -64.26396 | 35964 ft | 462 kts | 301° |
| 2026-05-06 23:58 | -6.25256 | -64.31946 | 35969 ft | 462 kts | 301° |
| 2026-05-06 23:58 | -6.21969 | -64.37500 | 35969 ft | 462 kts | 301° |
| 2026-05-06 23:59 | -6.18680 | -64.43055 | 35969 ft | 462 kts | 301° |
| 2026-05-06 23:59 | -6.15383 | -64.48622 | 35972 ft | 464 kts | 301° |
| 2026-05-07 00:00 | -6.12082 | -64.54195 | 35974 ft | 464 kts | 301° |
| 2026-05-07 00:00 | -6.08775 | -64.59776 | 35974 ft | 465 kts | 301° |
| 2026-05-07 00:01 | -6.05466 | -64.65359 | 35971 ft | 464 kts | 301° |
| 2026-05-07 00:01 | -6.02183 | -64.70896 | 35971 ft | 464 kts | 301° |
| 2026-05-07 00:02 | -5.98873 | -64.76478 | 35972 ft | 464 kts | 301° |
| 2026-05-07 00:02 | -5.95567 | -64.82051 | 35972 ft | 464 kts | 301° |
| 2026-05-07 00:03 | -5.92262 | -64.87620 | 35972 ft | 464 kts | 301° |
| 2026-05-07 00:03 | -5.88954 | -64.93193 | 35972 ft | 464 kts | 301° |
| 2026-05-07 00:04 | -5.85646 | -64.98765 | 35971 ft | 464 kts | 301° |
| 2026-05-07 00:04 | -5.82329 | -65.04350 | 35976 ft | 466 kts | 301° |
| 2026-05-07 00:05 | -5.79030 | -65.09902 | 35975 ft | 466 kts | 301° |
| 2026-05-07 00:05 | -5.75712 | -65.15486 | 35974 ft | 466 kts | 301° |
| 2026-05-07 00:06 | -5.72394 | -65.21068 | 35975 ft | 466 kts | 301° |
| 2026-05-07 00:06 | -5.69051 | -65.26690 | 35975 ft | 466 kts | 301° |
| 2026-05-07 00:07 | -5.65752 | -65.32238 | 35977 ft | 465 kts | 301° |
| 2026-05-07 00:07 | -5.62430 | -65.37822 | 35977 ft | 465 kts | 301° |
| 2026-05-07 00:08 | -5.59110 | -65.43400 | 35978 ft | 465 kts | 301° |
| 2026-05-07 00:08 | -5.55790 | -65.48978 | 35978 ft | 465 kts | 301° |
| 2026-05-07 00:09 | -5.52471 | -65.54552 | 35981 ft | 465 kts | 301° |
| 2026-05-07 00:09 | -5.49147 | -65.60135 | 35980 ft | 465 kts | 301° |
| 2026-05-07 00:10 | -5.45829 | -65.65705 | 35980 ft | 464 kts | 301° |
| 2026-05-07 00:10 | -5.42513 | -65.71269 | 35978 ft | 464 kts | 301° |
| 2026-05-07 00:11 | -5.39221 | -65.76792 | 35980 ft | 464 kts | 301° |
| 2026-05-07 00:11 | -5.35905 | -65.82354 | 35982 ft | 464 kts | 301° |
| 2026-05-07 00:12 | -5.32592 | -65.87910 | 35979 ft | 464 kts | 301° |
| 2026-05-07 00:12 | -5.29277 | -65.93466 | 35983 ft | 464 kts | 302° |
| 2026-05-07 00:13 | -5.25963 | -65.99021 | 35982 ft | 464 kts | 301° |
| 2026-05-07 00:13 | -5.22645 | -66.04582 | 35987 ft | 464 kts | 301° |
| 2026-05-07 00:14 | -5.19328 | -66.10137 | 35985 ft | 464 kts | 301° |
| 2026-05-07 00:14 | -5.16014 | -66.15687 | 35987 ft | 464 kts | 301° |
| 2026-05-07 00:15 | -5.12700 | -66.21236 | 35988 ft | 463 kts | 301° |
| 2026-05-07 00:15 | -5.09388 | -66.26779 | 35985 ft | 463 kts | 301° |
| 2026-05-07 00:16 | -5.06070 | -66.32333 | 35990 ft | 464 kts | 301° |
| 2026-05-07 00:16 | -5.02748 | -66.37891 | 35988 ft | 464 kts | 301° |
| 2026-05-07 00:17 | -4.99429 | -66.43443 | 35989 ft | 464 kts | 301° |
| 2026-05-07 00:17 | -4.96106 | -66.49000 | 35987 ft | 464 kts | 301° |
| 2026-05-07 00:18 | -4.92798 | -66.54531 | 35990 ft | 464 kts | 301° |
| 2026-05-07 00:18 | -4.89471 | -66.60092 | 35990 ft | 464 kts | 302° |
| 2026-05-07 00:19 | -4.86151 | -66.65640 | 35989 ft | 464 kts | 302° |
| 2026-05-07 00:19 | -4.82826 | -66.71194 | 35994 ft | 464 kts | 302° |
| 2026-05-07 00:20 | -4.79504 | -66.76744 | 35993 ft | 464 kts | 302° |
| 2026-05-07 00:20 | -4.76183 | -66.82289 | 35992 ft | 464 kts | 302° |
| 2026-05-07 00:21 | -4.72862 | -66.87834 | 35994 ft | 464 kts | 302° |
| 2026-05-07 00:21 | -4.69546 | -66.93369 | 35989 ft | 462 kts | 302° |
| 2026-05-07 00:22 | -4.66239 | -66.98888 | 35992 ft | 461 kts | 302° |
| 2026-05-07 00:22 | -4.62935 | -67.04401 | 35993 ft | 461 kts | 302° |
| 2026-05-07 00:23 | -4.59630 | -67.09914 | 35993 ft | 461 kts | 302° |
| 2026-05-07 00:23 | -4.56326 | -67.15424 | 35997 ft | 461 kts | 302° |
| 2026-05-07 00:24 | -4.53042 | -67.20899 | 35995 ft | 460 kts | 302° |
| 2026-05-07 00:24 | -4.49742 | -67.26399 | 35995 ft | 461 kts | 302° |
| 2026-05-07 00:25 | -4.46436 | -67.31910 | 35998 ft | 461 kts | 302° |
| 2026-05-07 00:25 | -4.43132 | -67.37415 | 36000 ft | 461 kts | 302° |
| 2026-05-07 00:26 | -4.39826 | -67.42921 | 35997 ft | 461 kts | 302° |
| 2026-05-07 00:26 | -4.36517 | -67.48433 | 35997 ft | 461 kts | 302° |
| 2026-05-07 00:27 | -4.33210 | -67.53939 | 36002 ft | 461 kts | 302° |
| 2026-05-07 00:27 | -4.29897 | -67.59454 | 35995 ft | 462 kts | 302° |
| 2026-05-07 00:28 | -4.26581 | -67.64975 | 35996 ft | 462 kts | 302° |
| 2026-05-07 00:28 | -4.23264 | -67.70494 | 35997 ft | 462 kts | 302° |
| 2026-05-07 00:29 | -4.19954 | -67.76002 | 35996 ft | 460 kts | 302° |
| 2026-05-07 00:30 | -4.13357 | -67.86975 | 35998 ft | 460 kts | 301° |
| 2026-05-07 00:30 | -4.10075 | -67.92432 | 36000 ft | 460 kts | 301° |
| 2026-05-07 00:31 | -4.06772 | -67.97922 | 35999 ft | 460 kts | 302° |
| 2026-05-07 00:31 | -4.03472 | -68.03408 | 35996 ft | 460 kts | 302° |
| 2026-05-07 00:32 | -4.00384 | -68.08540 | 35999 ft | 460 kts | 301° |
| 2026-05-07 00:32 | -3.97084 | -68.14023 | 36004 ft | 460 kts | 301° |
| 2026-05-07 00:33 | -3.93781 | -68.19508 | 35999 ft | 460 kts | 302° |
| 2026-05-07 00:33 | -3.90475 | -68.24999 | 36000 ft | 460 kts | 302° |
| 2026-05-07 00:34 | -3.87168 | -68.30492 | 36001 ft | 460 kts | 302° |
| 2026-05-07 00:34 | -3.83876 | -68.35958 | 36006 ft | 460 kts | 302° |
| 2026-05-07 00:35 | -3.80561 | -68.41461 | 36002 ft | 460 kts | 302° |
| 2026-05-07 00:35 | -3.77255 | -68.46948 | 36002 ft | 460 kts | 302° |
| 2026-05-07 00:36 | -3.73947 | -68.52437 | 36003 ft | 460 kts | 302° |
| 2026-05-07 00:36 | -3.71198 | -68.56999 | 36004 ft | 461 kts | 302° |
| 2026-05-07 00:37 | -3.67339 | -68.63399 | 36000 ft | 462 kts | 302° |
| 2026-05-07 00:37 | -3.64022 | -68.68901 | 36004 ft | 462 kts | 302° |
| 2026-05-07 00:38 | -3.60705 | -68.74401 | 36001 ft | 462 kts | 302° |
| 2026-05-07 00:38 | -3.57943 | -68.78980 | 36005 ft | 462 kts | 302° |
| 2026-05-07 00:39 | -3.54630 | -68.84471 | 36007 ft | 460 kts | 302° |
| 2026-05-07 00:39 | -3.51325 | -68.89950 | 36005 ft | 459 kts | 302° |
| 2026-05-07 00:40 | -3.48021 | -68.95426 | 36008 ft | 459 kts | 302° |
| 2026-05-07 00:40 | -3.44716 | -69.00902 | 36001 ft | 459 kts | 302° |
| 2026-05-07 00:41 | -3.41409 | -69.06379 | 36003 ft | 459 kts | 302° |
| 2026-05-07 00:41 | -3.38108 | -69.11847 | 36005 ft | 459 kts | 302° |
| 2026-05-07 00:42 | -3.34802 | -69.17321 | 36014 ft | 459 kts | 302° |
| 2026-05-07 00:42 | -3.31520 | -69.22757 | 36013 ft | 460 kts | 301° |
| 2026-05-07 00:43 | -3.28209 | -69.28239 | 36008 ft | 460 kts | 302° |
| 2026-05-07 00:43 | -3.24894 | -69.33725 | 35998 ft | 460 kts | 301° |
| 2026-05-07 00:44 | -3.21583 | -69.39206 | 36010 ft | 460 kts | 302° |
| 2026-05-07 00:44 | -3.18274 | -69.44681 | 36002 ft | 459 kts | 301° |
| 2026-05-07 00:45 | -3.14976 | -69.50138 | 36013 ft | 459 kts | 301° |
| 2026-05-07 00:45 | -3.11664 | -69.55618 | 36014 ft | 459 kts | 302° |
| 2026-05-07 00:46 | -3.08355 | -69.61090 | 36014 ft | 460 kts | 302° |
| 2026-05-07 00:46 | -3.05049 | -69.66559 | 36014 ft | 459 kts | 302° |
| 2026-05-07 00:47 | -3.01568 | -69.71866 | 35997 ft | 457 kts | 314° |
| 2026-05-07 00:47 | -2.97084 | -69.76374 | 35986 ft | 458 kts | 315° |
| 2026-05-07 00:48 | -2.92579 | -69.80892 | 36014 ft | 459 kts | 315° |
| 2026-05-07 00:48 | -2.88046 | -69.85399 | 36018 ft | 458 kts | 315° |
| 2026-05-07 00:49 | -2.83530 | -69.89886 | 36014 ft | 456 kts | 315° |
| 2026-05-07 00:49 | -2.79031 | -69.94355 | 36018 ft | 455 kts | 315° |
| 2026-05-07 00:50 | -2.74535 | -69.98821 | 36013 ft | 455 kts | 315° |
| 2026-05-07 00:50 | -2.69662 | -70.02732 | 36005 ft | 453 kts | 334° |
| 2026-05-07 00:51 | -2.63973 | -70.05518 | 36000 ft | 455 kts | 334° |
| 2026-05-07 00:51 | -2.58253 | -70.08263 | 36013 ft | 456 kts | 334° |
| 2026-05-07 00:52 | -2.52511 | -70.10986 | 36015 ft | 456 kts | 334° |
| 2026-05-07 00:52 | -2.46778 | -70.13700 | 36011 ft | 455 kts | 334° |
| 2026-05-07 00:53 | -2.41051 | -70.16411 | 36014 ft | 456 kts | 334° |
| 2026-05-07 00:53 | -2.35316 | -70.19126 | 36015 ft | 456 kts | 334° |
| 2026-05-07 00:54 | -2.29584 | -70.21839 | 36015 ft | 456 kts | 334° |
| 2026-05-07 00:54 | -2.23832 | -70.24561 | 36017 ft | 457 kts | 334° |
| 2026-05-07 00:55 | -2.18085 | -70.27281 | 36016 ft | 457 kts | 334° |
| 2026-05-07 00:55 | -2.12376 | -70.29982 | 36013 ft | 457 kts | 335° |
| 2026-05-07 00:56 | -2.06619 | -70.32705 | 36015 ft | 458 kts | 335° |
| 2026-05-07 00:56 | -2.00865 | -70.35428 | 36016 ft | 457 kts | 335° |
| 2026-05-07 00:57 | -1.95107 | -70.38152 | 36018 ft | 457 kts | 335° |
| 2026-05-07 00:57 | -1.89351 | -70.40875 | 36018 ft | 457 kts | 335° |
| 2026-05-07 00:58 | -1.83597 | -70.43596 | 36018 ft | 457 kts | 335° |
| 2026-05-07 00:58 | -1.77845 | -70.46316 | 36012 ft | 458 kts | 335° |
| 2026-05-07 00:59 | -1.69164 | -70.50422 | 36016 ft | 460 kts | 335° |
| 2026-05-07 01:00 | -1.63401 | -70.53147 | 36019 ft | 460 kts | 335° |
| 2026-05-07 01:00 | -1.57621 | -70.55880 | 36022 ft | 459 kts | 335° |
| 2026-05-07 01:01 | -1.51850 | -70.58609 | 36024 ft | 458 kts | 335° |
| 2026-05-07 01:01 | -1.46083 | -70.61335 | 36020 ft | 458 kts | 335° |
| 2026-05-07 01:02 | -1.40304 | -70.64067 | 36019 ft | 460 kts | 335° |
| 2026-05-07 01:02 | -1.34540 | -70.66792 | 36020 ft | 461 kts | 335° |
| 2026-05-07 01:03 | -1.28746 | -70.69531 | 36022 ft | 461 kts | 335° |
| 2026-05-07 01:03 | -1.22942 | -70.72274 | 36021 ft | 461 kts | 335° |
| 2026-05-07 01:04 | -1.17137 | -70.75019 | 36021 ft | 461 kts | 335° |
| 2026-05-07 01:04 | -1.11335 | -70.77760 | 36020 ft | 461 kts | 335° |
| 2026-05-07 01:05 | -1.05538 | -70.80500 | 36022 ft | 461 kts | 335° |
| 2026-05-07 01:05 | -0.99722 | -70.83249 | 36020 ft | 462 kts | 335° |
| 2026-05-07 01:06 | -0.93914 | -70.85994 | 36024 ft | 462 kts | 335° |
| 2026-05-07 01:06 | -0.88137 | -70.88724 | 36019 ft | 462 kts | 335° |
| 2026-05-07 01:07 | -0.82317 | -70.91474 | 36023 ft | 463 kts | 335° |
| 2026-05-07 01:07 | -0.76479 | -70.94233 | 36024 ft | 463 kts | 335° |
| 2026-05-07 01:08 | -0.70639 | -70.96992 | 36218 ft | 464 kts | 335° |
| 2026-05-07 01:08 | -0.67707 | -70.98378 | 36351 ft | 466 kts | 335° |
| 2026-05-07 01:08 | -0.64767 | -70.99767 | 36552 ft | 466 kts | 335° |
| 2026-05-07 01:08 | -0.61832 | -71.01154 | 36760 ft | 466 kts | 335° |
| 2026-05-07 01:09 | -0.58897 | -71.02541 | 36951 ft | 466 kts | 335° |
| 2026-05-07 01:09 | -0.55963 | -71.03927 | 37153 ft | 466 kts | 335° |
| 2026-05-07 01:09 | -0.53036 | -71.05310 | 37351 ft | 466 kts | 334° |
| 2026-05-07 01:09 | -0.50104 | -71.06695 | 37556 ft | 466 kts | 334° |
| 2026-05-07 01:10 | -0.47179 | -71.08077 | 37760 ft | 465 kts | 334° |
| 2026-05-07 01:10 | -0.44288 | -71.09443 | 37949 ft | 465 kts | 334° |
| 2026-05-07 01:10 | -0.41362 | -71.10826 | 38147 ft | 464 kts | 334° |
| 2026-05-07 01:10 | -0.38441 | -71.12206 | 38334 ft | 463 kts | 334° |
| 2026-05-07 01:11 | -0.35522 | -71.13585 | 38516 ft | 463 kts | 334° |
| 2026-05-07 01:11 | -0.32612 | -71.14959 | 38694 ft | 462 kts | 334° |
| 2026-05-07 01:11 | -0.29704 | -71.16333 | 38819 ft | 462 kts | 334° |
| 2026-05-07 01:11 | -0.26807 | -71.17702 | 38964 ft | 460 kts | 334° |
| 2026-05-07 01:12 | -0.23906 | -71.19072 | 39039 ft | 461 kts | 334° |
| 2026-05-07 01:12 | -0.18093 | -71.21818 | 39015 ft | 461 kts | 334° |
| 2026-05-07 01:13 | -0.12335 | -71.24540 | 39026 ft | 461 kts | 334° |
| 2026-05-07 01:13 | -0.06531 | -71.27282 | 39028 ft | 461 kts | 334° |
| 2026-05-07 01:14 | -0.00721 | -71.30028 | 39030 ft | 461 kts | 334° |
| 2026-05-07 01:14 | 0.05071 | -71.32765 | 39023 ft | 460 kts | 334° |
| 2026-05-07 01:15 | 0.10827 | -71.35485 | 39030 ft | 460 kts | 334° |
| 2026-05-07 01:15 | 0.16613 | -71.38220 | 39026 ft | 460 kts | 334° |
| 2026-05-07 01:16 | 0.22401 | -71.40955 | 39028 ft | 460 kts | 334° |
| 2026-05-07 01:16 | 0.28191 | -71.43692 | 39028 ft | 460 kts | 334° |
| 2026-05-07 01:17 | 0.33972 | -71.46424 | 39022 ft | 460 kts | 334° |
| 2026-05-07 01:17 | 0.39756 | -71.49157 | 39024 ft | 459 kts | 334° |
| 2026-05-07 01:18 | 0.45483 | -71.51864 | 39032 ft | 458 kts | 334° |
| 2026-05-07 01:18 | 0.51247 | -71.54588 | 39027 ft | 458 kts | 334° |
| 2026-05-07 01:19 | 0.57011 | -71.57312 | 39017 ft | 458 kts | 334° |
| 2026-05-07 01:19 | 0.62770 | -71.60035 | 39028 ft | 458 kts | 334° |
| 2026-05-07 01:20 | 0.68540 | -71.62762 | 39029 ft | 458 kts | 334° |
| 2026-05-07 01:20 | 0.74300 | -71.65485 | 39038 ft | 457 kts | 334° |
| 2026-05-07 01:21 | 0.80000 | -71.68178 | 39020 ft | 451 kts | 334° |
| 2026-05-07 01:21 | 0.85685 | -71.70866 | 39030 ft | 452 kts | 334° |
| 2026-05-07 01:22 | 0.91370 | -71.73554 | 39031 ft | 452 kts | 334° |
| 2026-05-07 01:22 | 0.97060 | -71.76243 | 39033 ft | 452 kts | 334° |
| 2026-05-07 01:23 | 1.02703 | -71.78911 | 39032 ft | 452 kts | 334° |
| 2026-05-07 01:23 | 1.08390 | -71.81600 | 39031 ft | 452 kts | 334° |
| 2026-05-07 01:24 | 1.14061 | -71.84281 | 39018 ft | 449 kts | 333° |
| 2026-05-07 01:24 | 1.19706 | -71.86950 | 39029 ft | 449 kts | 333° |
| 2026-05-07 01:25 | 1.25350 | -71.89618 | 39032 ft | 449 kts | 333° |
| 2026-05-07 01:25 | 1.31005 | -71.92292 | 39026 ft | 450 kts | 334° |
| 2026-05-07 01:26 | 1.36577 | -71.95126 | 39018 ft | 449 kts | 326° |
| 2026-05-07 01:26 | 1.41937 | -71.98373 | 39018 ft | 450 kts | 328° |
| 2026-05-07 01:27 | 1.47327 | -72.01557 | 39037 ft | 449 kts | 328° |
| 2026-05-07 01:27 | 1.51786 | -72.04183 | 39029 ft | 446 kts | 328° |
| 2026-05-07 01:28 | 1.57998 | -72.07841 | 39032 ft | 447 kts | 328° |
| 2026-05-07 01:28 | 1.63356 | -72.10997 | 39028 ft | 446 kts | 328° |
| 2026-05-07 01:29 | 1.67842 | -72.13638 | 39031 ft | 446 kts | 328° |
| 2026-05-07 01:29 | 1.73191 | -72.16789 | 39028 ft | 446 kts | 328° |
| 2026-05-07 01:30 | 1.78542 | -72.19941 | 39031 ft | 446 kts | 328° |
| 2026-05-07 01:30 | 1.83859 | -72.23073 | 39026 ft | 446 kts | 328° |
| 2026-05-07 01:31 | 1.89208 | -72.26224 | 39028 ft | 446 kts | 328° |
| 2026-05-07 01:31 | 1.94564 | -72.29379 | 39026 ft | 447 kts | 328° |
| 2026-05-07 01:32 | 1.99921 | -72.32535 | 39032 ft | 447 kts | 328° |
| 2026-05-07 01:32 | 2.05282 | -72.35694 | 39028 ft | 447 kts | 328° |
| 2026-05-07 01:33 | 2.10641 | -72.38852 | 39028 ft | 447 kts | 328° |
| 2026-05-07 01:33 | 2.16002 | -72.42011 | 39029 ft | 447 kts | 328° |
| 2026-05-07 01:34 | 2.21360 | -72.45169 | 39031 ft | 447 kts | 328° |
| 2026-05-07 01:34 | 2.26709 | -72.48322 | 39030 ft | 447 kts | 328° |
| 2026-05-07 01:35 | 2.32035 | -72.51462 | 39035 ft | 447 kts | 328° |
| 2026-05-07 01:35 | 2.37390 | -72.54618 | 39041 ft | 447 kts | 328° |
| 2026-05-07 01:36 | 2.42742 | -72.57774 | 39044 ft | 447 kts | 328° |
| 2026-05-07 01:36 | 2.48090 | -72.60926 | 39043 ft | 447 kts | 328° |
| 2026-05-07 01:37 | 2.53487 | -72.64029 | 39028 ft | 448 kts | 334° |
| 2026-05-07 01:37 | 2.59130 | -72.66672 | 39052 ft | 448 kts | 333° |
| 2026-05-07 01:38 | 2.64735 | -72.69375 | 39049 ft | 447 kts | 333° |
| 2026-05-07 01:38 | 2.70334 | -72.72086 | 39051 ft | 447 kts | 333° |
| 2026-05-07 01:39 | 2.75934 | -72.74799 | 39048 ft | 447 kts | 333° |
| 2026-05-07 01:39 | 2.81535 | -72.77513 | 39068 ft | 447 kts | 333° |
| 2026-05-07 01:40 | 2.87131 | -72.80224 | 39076 ft | 447 kts | 333° |
| 2026-05-07 01:40 | 2.92727 | -72.82936 | 39089 ft | 447 kts | 333° |
| 2026-05-07 01:41 | 2.98338 | -72.85656 | 39090 ft | 448 kts | 333° |
| 2026-05-07 01:41 | 3.03958 | -72.88380 | 39090 ft | 448 kts | 333° |
| 2026-05-07 01:42 | 3.09571 | -72.91101 | 39098 ft | 448 kts | 333° |
| 2026-05-07 01:42 | 3.15181 | -72.93821 | 39102 ft | 448 kts | 333° |
| 2026-05-07 01:43 | 3.20759 | -72.96525 | 39114 ft | 448 kts | 333° |
| 2026-05-07 01:43 | 3.26406 | -72.99264 | 39120 ft | 448 kts | 333° |
| 2026-05-07 01:44 | 3.32016 | -73.01985 | 39119 ft | 448 kts | 333° |
| 2026-05-07 01:44 | 3.37594 | -73.04690 | 39131 ft | 448 kts | 333° |
| 2026-05-07 01:45 | 3.43208 | -73.07414 | 39132 ft | 448 kts | 333° |
| 2026-05-07 01:45 | 3.48818 | -73.10136 | 39143 ft | 448 kts | 333° |
| 2026-05-07 01:46 | 3.54433 | -73.12861 | 39143 ft | 448 kts | 333° |
| 2026-05-07 01:46 | 3.60052 | -73.15588 | 39141 ft | 448 kts | 333° |
| 2026-05-07 01:47 | 3.65673 | -73.18315 | 39147 ft | 448 kts | 333° |
| 2026-05-07 01:47 | 3.71293 | -73.21044 | 39149 ft | 450 kts | 333° |
| 2026-05-07 01:48 | 3.76934 | -73.23783 | 39158 ft | 450 kts | 333° |
| 2026-05-07 01:48 | 3.82561 | -73.26515 | 39164 ft | 450 kts | 333° |
| 2026-05-07 01:49 | 3.88185 | -73.29247 | 39160 ft | 450 kts | 333° |
| 2026-05-07 01:49 | 3.93782 | -73.31966 | 39166 ft | 450 kts | 333° |
| 2026-05-07 01:50 | 3.99412 | -73.34700 | 39156 ft | 449 kts | 333° |
| 2026-05-07 01:50 | 4.05008 | -73.37489 | 39119 ft | 449 kts | 326° |
| 2026-05-07 01:50 | 4.07395 | -73.39457 | 39102 ft | 444 kts | 311° |
| 2026-05-07 01:51 | 4.09454 | -73.41777 | 39112 ft | 446 kts | 310° |
| 2026-05-07 01:51 | 4.13505 | -73.46496 | 39071 ft | 447 kts | 309° |
| 2026-05-07 01:52 | 4.17498 | -73.51274 | 39031 ft | 447 kts | 309° |
| 2026-05-07 01:52 | 4.21482 | -73.56071 | 39017 ft | 447 kts | 309° |
| 2026-05-07 01:52 | 4.23465 | -73.58462 | 39259 ft | 447 kts | 309° |
| 2026-05-07 01:53 | 4.25455 | -73.60860 | 39292 ft | 447 kts | 309° |
| 2026-05-07 01:53 | 4.29407 | -73.65625 | 39352 ft | 447 kts | 309° |
| 2026-05-07 01:54 | 4.33384 | -73.70418 | 39345 ft | 447 kts | 309° |
| 2026-05-07 01:54 | 4.37350 | -73.75201 | 39336 ft | 446 kts | 309° |
| 2026-05-07 01:55 | 4.41306 | -73.79974 | 39423 ft | 443 kts | 309° |
| 2026-05-07 01:55 | 4.45223 | -73.84699 | 39407 ft | 442 kts | 309° |
| 2026-05-07 01:56 | 4.49150 | -73.89436 | 39390 ft | 441 kts | 309° |
| 2026-05-07 01:56 | 4.53084 | -73.94184 | 39423 ft | 443 kts | 309° |
| 2026-05-07 01:57 | 4.57018 | -73.98933 | 39426 ft | 443 kts | 309° |
| 2026-05-07 01:57 | 4.60966 | -74.03700 | 39413 ft | 444 kts | 310° |
| 2026-05-07 01:58 | 4.64903 | -74.08454 | 39400 ft | 441 kts | 310° |
| 2026-05-07 01:58 | 4.68809 | -74.13171 | 39399 ft | 440 kts | 310° |
| 2026-05-07 01:59 | 4.72732 | -74.17910 | 39412 ft | 440 kts | 310° |
| 2026-05-07 01:59 | 4.76622 | -74.22610 | 39396 ft | 437 kts | 310° |
| 2026-05-07 02:00 | 4.80495 | -74.27290 | 39382 ft | 441 kts | 310° |
| 2026-05-07 02:00 | 4.84420 | -74.32072 | 39339 ft | 444 kts | 306° |
| 2026-05-07 02:01 | 4.87655 | -74.37329 | 39268 ft | 443 kts | 302° |
| 2026-05-07 02:01 | 4.90851 | -74.42639 | 39229 ft | 445 kts | 302° |
| 2026-05-07 02:02 | 4.94060 | -74.47989 | 39210 ft | 450 kts | 302° |
| 2026-05-07 02:02 | 4.97280 | -74.53356 | 39165 ft | 451 kts | 302° |
| 2026-05-07 02:03 | 5.00504 | -74.58733 | 39146 ft | 450 kts | 302° |
| 2026-05-07 02:03 | 5.03738 | -74.64128 | 39086 ft | 450 kts | 302° |
| 2026-05-07 02:04 | 5.06970 | -74.69522 | 39013 ft | 452 kts | 302° |
| 2026-05-07 02:04 | 5.10219 | -74.74943 | 38988 ft | 454 kts | 302° |
| 2026-05-07 02:05 | 5.13470 | -74.80370 | 38935 ft | 452 kts | 302° |
| 2026-05-07 02:05 | 5.16680 | -74.85731 | 38966 ft | 451 kts | 301° |
| 2026-05-07 02:06 | 5.20096 | -74.91033 | 38948 ft | 452 kts | 313° |
| 2026-05-07 02:06 | 5.22453 | -74.93100 | 38976 ft | 449 kts | 326° |
| 2026-05-07 02:06 | 5.25043 | -74.94881 | 38948 ft | 452 kts | 326° |
| 2026-05-07 02:07 | 5.30300 | -74.98359 | 38997 ft | 453 kts | 327° |
| 2026-05-07 02:07 | 5.35592 | -75.01770 | 39107 ft | 452 kts | 327° |
| 2026-05-07 02:07 | 5.38246 | -75.03471 | 39109 ft | 453 kts | 327° |
| 2026-05-07 02:08 | 5.43548 | -75.06866 | 39135 ft | 452 kts | 328° |
| 2026-05-07 02:08 | 5.48794 | -75.10228 | 38850 ft | 446 kts | 328° |
| 2026-05-07 02:09 | 5.51426 | -75.11914 | 37874 ft | 452 kts | 328° |
| 2026-05-07 02:09 | 5.54087 | -75.13619 | 36992 ft | 457 kts | 328° |
| 2026-05-07 02:09 | 5.56779 | -75.15345 | 36174 ft | 461 kts | 328° |
| 2026-05-07 02:09 | 5.59500 | -75.17089 | 35360 ft | 464 kts | 328° |
| 2026-05-07 02:10 | 5.62238 | -75.18844 | 34580 ft | 468 kts | 327° |
| 2026-05-07 02:10 | 5.64992 | -75.20609 | 33758 ft | 472 kts | 327° |
| 2026-05-07 02:10 | 5.67768 | -75.22388 | 32894 ft | 475 kts | 328° |
| 2026-05-07 02:10 | 5.70562 | -75.24180 | 32041 ft | 478 kts | 328° |
| 2026-05-07 02:11 | 5.73369 | -75.25981 | 31256 ft | 480 kts | 328° |
| 2026-05-07 02:11 | 5.76088 | -75.27936 | 30424 ft | 482 kts | 318° |
| 2026-05-07 02:11 | 5.78254 | -75.30500 | 29585 ft | 484 kts | 302° |
| 2026-05-07 02:11 | 5.79682 | -75.33562 | 28641 ft | 486 kts | 287° |
| 2026-05-07 02:12 | 5.80266 | -75.36899 | 27669 ft | 488 kts | 272° |
| 2026-05-07 02:12 | 5.79962 | -75.40297 | 26704 ft | 488 kts | 257° |
| 2026-05-07 02:12 | 5.79133 | -75.43588 | 25223 ft | 487 kts | 260° |
| 2026-05-07 02:12 | 5.78811 | -75.45821 | 24194 ft | 490 kts | 262° |
| 2026-05-07 02:13 | 5.77411 | -75.50089 | 22495 ft | 484 kts | 239° |
| 2026-05-07 02:13 | 5.75307 | -75.52653 | 21428 ft | 472 kts | 219° |
| 2026-05-07 02:13 | 5.72547 | -75.54316 | 20453 ft | 458 kts | 198° |
| 2026-05-07 02:13 | 5.69484 | -75.54901 | 19581 ft | 442 kts | 178° |
| 2026-05-07 02:14 | 5.66522 | -75.54393 | 18697 ft | 427 kts | 156° |
| 2026-05-07 02:14 | 5.64800 | -75.53493 | 18101 ft | 417 kts | 142° |
| 2026-05-07 02:14 | 5.62357 | -75.50633 | 16786 ft | 400 kts | 113° |
| 2026-05-07 02:14 | 5.61702 | -75.47979 | 15852 ft | 390 kts | 91° |
| 2026-05-07 02:15 | 5.61870 | -75.46195 | 15196 ft | 387 kts | 77° |
| 2026-05-07 02:15 | 5.63006 | -75.43776 | 14279 ft | 385 kts | 54° |
| 2026-05-07 02:15 | 5.65017 | -75.42029 | 13328 ft | 386 kts | 32° |
| 2026-05-07 02:15 | 5.67489 | -75.41029 | 12784 ft | 376 kts | 18° |
| 2026-05-07 02:16 | 5.70027 | -75.40621 | 12757 ft | 364 kts | 2° |
| 2026-05-07 02:16 | 5.72499 | -75.40797 | 12722 ft | 346 kts | 359° |
| 2026-05-07 02:16 | 5.74831 | -75.40959 | 12684 ft | 324 kts | 360° |
| 2026-05-07 02:16 | 5.77008 | -75.41100 | 12688 ft | 302 kts | 0° |
| 2026-05-07 02:17 | 5.79016 | -75.41223 | 12634 ft | 286 kts | 0° |
| 2026-05-07 02:17 | 5.80970 | -75.41339 | 12556 ft | 276 kts | 1° |
| 2026-05-07 02:17 | 5.82863 | -75.41448 | 12419 ft | 269 kts | 0° |
| 2026-05-07 02:17 | 5.84706 | -75.41553 | 12277 ft | 261 kts | 1° |
| 2026-05-07 02:18 | 5.86510 | -75.41655 | 12173 ft | 261 kts | 1° |
| 2026-05-07 02:18 | 5.88341 | -75.41757 | 12041 ft | 265 kts | 0° |
| 2026-05-07 02:18 | 5.90182 | -75.41847 | 11903 ft | 265 kts | 1° |
| 2026-05-07 02:18 | 5.92036 | -75.41918 | 11579 ft | 268 kts | 1° |
| 2026-05-07 02:19 | 5.93912 | -75.41991 | 11223 ft | 271 kts | 0° |
| 2026-05-07 02:19 | 5.95804 | -75.42063 | 10894 ft | 270 kts | 0° |
| 2026-05-07 02:19 | 5.97629 | -75.42145 | 10568 ft | 253 kts | 360° |
| 2026-05-07 02:19 | 5.99316 | -75.42203 | 10233 ft | 234 kts | 1° |
| 2026-05-07 02:20 | 6.00891 | -75.42216 | 9902 ft | 216 kts | 2° |
| 2026-05-07 02:20 | 6.02314 | -75.42222 | 9594 ft | 194 kts | 2° |
| 2026-05-07 02:20 | 6.03602 | -75.42229 | 9368 ft | 180 kts | 2° |
| 2026-05-07 02:20 | 6.04837 | -75.42237 | 9090 ft | 177 kts | 2° |
| 2026-05-07 02:21 | 6.06067 | -75.42244 | 8833 ft | 176 kts | 2° |
| 2026-05-07 02:21 | 6.07292 | -75.42252 | 8581 ft | 176 kts | 2° |
| 2026-05-07 02:21 | 6.08519 | -75.42261 | 8346 ft | 176 kts | 2° |
| 2026-05-07 02:21 | 6.09741 | -75.42266 | 8085 ft | 180 kts | 2° |
| 2026-05-07 02:22 | 6.11000 | -75.42270 | 7815 ft | 181 kts | 1° |
| 2026-05-07 02:22 | 6.12253 | -75.42285 | 7554 ft | 179 kts | 359° |
| 2026-05-07 02:22 | 6.13479 | -75.42290 | 7321 ft | 175 kts | 1° |
| 2026-05-07 02:22 | 6.14679 | -75.42303 | 7075 ft | 170 kts | 1° |
| 2026-05-07 02:23 | 6.15808 | -75.42306 | 6981 ft | 138 kts | 359° |
| 2026-05-07 02:23 | 6.16427 | -75.42310 | 6987 ft | 70 kts | 359° |
| 2026-05-07 02:23 | 6.16857 | -75.42310 | 7004 ft | 34 kts | 351° |
| 2026-05-07 02:23 | 6.17050 | -75.42378 | 7018 ft | 25 kts | 332° |
| 2026-05-07 02:24 | 6.17150 | -75.42438 | 7016 ft | 14 kts | 329° |
| 2026-05-07 02:24 | 6.17183 | -75.42502 | 7016 ft | 11 kts | 279° |
| 2026-05-07 02:24 | 6.17184 | -75.42581 | 7022 ft | 10 kts | 276° |
| 2026-05-07 02:24 | 6.17183 | -75.42602 | 7022 ft | 0 kts | 240° |
| 2026-05-07 02:25 | 6.17170 | -75.42614 | 7022 ft | 6 kts | 210° |
| 2026-05-07 02:25 | 6.17122 | -75.42617 | 7020 ft | 6 kts | 176° |
| 2026-05-07 02:25 | 6.17096 | -75.42617 | 7019 ft | 8 kts | 189° |
| 2026-05-07 02:25 | 6.17030 | -75.42655 | 7024 ft | 12 kts | 217° |
| 2026-05-07 02:26 | 6.16961 | -75.42708 | 7020 ft | 13 kts | 225° |
| 2026-05-07 02:26 | 6.16913 | -75.42795 | 7023 ft | 14 kts | 255° |
| 2026-05-07 02:26 | 6.16912 | -75.42864 | 7024 ft | 7 kts | 320° |
| 2026-05-07 02:26 | 6.16932 | -75.42873 | 7022 ft | 2 kts | 348° |
| 2026-05-07 02:27 | 6.16937 | -75.42874 | 7023 ft | 1 kts | 347° |
| 2026-05-07 02:27 | 6.16943 | -75.42875 | 7024 ft | 0 kts | 347° |